sensor_id;sensor_type;location;lat;lon;timestamp;temperature;humidity
27900;DHT22;15243;50.726;7.080;2023-04-24T00:02:00;11.10;99.90
27900;DHT22;15243;50.726;7.080;2023-04-24T00:04:28;11.20;99.90
27900;DHT22;15243;50.726;7.080;2023-04-24T00:06:55;11.30;99.90
27900;DHT22;15243;50.726;7.080;2023-04-24T00:09:24;11.20;99.90
27900;DHT22;15243;50.726;7.080;2023-04-24T00:11:52;11.20;99.90
27900;DHT22;15243;50.726;7.080;2023-04-24T00:14:20;11.20;99.90
27900;DHT22;15243;50.726;7.080;2023-04-24T00:16:47;11.30;99.90
27900;DHT22;15243;50.726;7.080;2023-04-24T00:19:14;11.10;99.90
27900;DHT22;15243;50.726;7.080;2023-04-24T00:21:41;11.20;99.90
27900;DHT22;15243;50.726;7.080;2023-04-24T00:24:08;11.10;99.90
27900;DHT22;15243;50.726;7.080;2023-04-24T00:26:35;11.20;99.90
27900;DHT22;15243;50.726;7.080;2023-04-24T00:29:02;11.20;99.90
27900;DHT22;15243;50.726;7.080;2023-04-24T00:31:29;11.20;99.90
27900;DHT22;15243;50.726;7.080;2023-04-24T00:33:57;11.20;99.90
27900;DHT22;15243;50.726;7.080;2023-04-24T00:36:24;11.20;99.90
27900;DHT22;15243;50.726;7.080;2023-04-24T00:38:52;11.20;99.90
27900;DHT22;15243;50.726;7.080;2023-04-24T00:41:19;11.20;99.90
27900;DHT22;15243;50.726;7.080;2023-04-24T00:43:48;11.20;99.90
27900;DHT22;15243;50.726;7.080;2023-04-24T00:46:16;11.20;99.90
27900;DHT22;15243;50.726;7.080;2023-04-24T00:48:43;11.30;99.90
27900;DHT22;15243;50.726;7.080;2023-04-24T00:51:10;11.30;99.90
27900;DHT22;15243;50.726;7.080;2023-04-24T00:53:38;11.20;99.90
27900;DHT22;15243;50.726;7.080;2023-04-24T00:56:04;11.20;99.90
27900;DHT22;15243;50.726;7.080;2023-04-24T00:58:32;11.20;99.90
27900;DHT22;15243;50.726;7.080;2023-04-24T01:00:59;11.20;99.90
27900;DHT22;15243;50.726;7.080;2023-04-24T01:03:29;11.20;99.90
27900;DHT22;15243;50.726;7.080;2023-04-24T01:05:59;11.20;99.90
27900;DHT22;15243;50.726;7.080;2023-04-24T01:08:28;11.20;99.90
27900;DHT22;15243;50.726;7.080;2023-04-24T01:10:57;11.20;99.90
27900;DHT22;15243;50.726;7.080;2023-04-24T01:13:24;11.20;99.90
27900;DHT22;15243;50.726;7.080;2023-04-24T01:15:51;11.30;99.90
27900;DHT22;15243;50.726;7.080;2023-04-24T01:18:18;11.30;99.90
27900;DHT22;15243;50.726;7.080;2023-04-24T01:20:45;11.30;99.90
27900;DHT22;15243;50.726;7.080;2023-04-24T01:23:13;11.30;99.90
27900;DHT22;15243;50.726;7.080;2023-04-24T01:25:40;11.40;99.90
27900;DHT22;15243;50.726;7.080;2023-04-24T01:28:07;11.30;99.90
27900;DHT22;15243;50.726;7.080;2023-04-24T01:30:34;11.20;99.90
27900;DHT22;15243;50.726;7.080;2023-04-24T01:33:02;11.20;99.90
27900;DHT22;15243;50.726;7.080;2023-04-24T01:35:29;11.10;99.90
27900;DHT22;15243;50.726;7.080;2023-04-24T01:37:56;11.10;99.90
27900;DHT22;15243;50.726;7.080;2023-04-24T01:40:23;11.10;99.90
27900;DHT22;15243;50.726;7.080;2023-04-24T01:42:50;11.00;99.90
27900;DHT22;15243;50.726;7.080;2023-04-24T01:45:18;11.00;99.90
27900;DHT22;15243;50.726;7.080;2023-04-24T01:47:45;11.10;99.90
27900;DHT22;15243;50.726;7.080;2023-04-24T01:50:13;11.10;99.90
27900;DHT22;15243;50.726;7.080;2023-04-24T01:52:40;11.00;99.90
27900;DHT22;15243;50.726;7.080;2023-04-24T01:55:10;11.00;99.90
27900;DHT22;15243;50.726;7.080;2023-04-24T01:57:38;10.90;99.90
27900;DHT22;15243;50.726;7.080;2023-04-24T02:00:05;10.90;99.90
27900;DHT22;15243;50.726;7.080;2023-04-24T02:02:33;10.90;99.90
27900;DHT22;15243;50.726;7.080;2023-04-24T02:05:01;10.70;99.90
27900;DHT22;15243;50.726;7.080;2023-04-24T02:07:29;10.60;99.90
27900;DHT22;15243;50.726;7.080;2023-04-24T02:09:56;10.60;99.90
27900;DHT22;15243;50.726;7.080;2023-04-24T02:12:23;10.60;95.00
27900;DHT22;15243;50.726;7.080;2023-04-24T02:14:50;10.50;94.50
27900;DHT22;15243;50.726;7.080;2023-04-24T02:17:17;10.50;92.50
27900;DHT22;15243;50.726;7.080;2023-04-24T02:19:45;10.40;91.00
27900;DHT22;15243;50.726;7.080;2023-04-24T02:22:12;10.40;91.90
27900;DHT22;15243;50.726;7.080;2023-04-24T02:24:39;10.30;94.50
27900;DHT22;15243;50.726;7.080;2023-04-24T02:27:06;10.20;95.40
27900;DHT22;15243;50.726;7.080;2023-04-24T02:29:33;10.20;95.00
27900;DHT22;15243;50.726;7.080;2023-04-24T02:32:00;10.10;97.10
27900;DHT22;15243;50.726;7.080;2023-04-24T02:34:27;10.10;99.90
27900;DHT22;15243;50.726;7.080;2023-04-24T02:36:54;9.90;99.90
27900;DHT22;15243;50.726;7.080;2023-04-24T02:39:21;9.90;99.90
27900;DHT22;15243;50.726;7.080;2023-04-24T02:41:48;9.80;99.90
27900;DHT22;15243;50.726;7.080;2023-04-24T02:44:15;9.70;99.90
27900;DHT22;15243;50.726;7.080;2023-04-24T02:46:43;9.70;99.90
27900;DHT22;15243;50.726;7.080;2023-04-24T02:49:11;9.70;99.90
27900;DHT22;15243;50.726;7.080;2023-04-24T02:51:38;9.50;99.90
27900;DHT22;15243;50.726;7.080;2023-04-24T02:54:08;9.50;99.90
27900;DHT22;15243;50.726;7.080;2023-04-24T02:56:36;9.40;99.90
27900;DHT22;15243;50.726;7.080;2023-04-24T02:59:03;9.40;99.90
27900;DHT22;15243;50.726;7.080;2023-04-24T03:01:30;9.40;99.90
27900;DHT22;15243;50.726;7.080;2023-04-24T03:03:58;9.30;99.90
27900;DHT22;15243;50.726;7.080;2023-04-24T03:06:25;9.20;99.90
27900;DHT22;15243;50.726;7.080;2023-04-24T03:08:53;9.20;99.90
27900;DHT22;15243;50.726;7.080;2023-04-24T03:11:21;9.10;99.90
27900;DHT22;15243;50.726;7.080;2023-04-24T03:13:48;9.10;99.90
27900;DHT22;15243;50.726;7.080;2023-04-24T03:16:15;9.10;99.90
27900;DHT22;15243;50.726;7.080;2023-04-24T03:18:42;9.10;99.90
27900;DHT22;15243;50.726;7.080;2023-04-24T03:21:09;9.10;99.90
27900;DHT22;15243;50.726;7.080;2023-04-24T03:23:36;9.10;99.90
27900;DHT22;15243;50.726;7.080;2023-04-24T03:26:03;9.10;99.90
27900;DHT22;15243;50.726;7.080;2023-04-24T03:28:30;9.00;99.90
27900;DHT22;15243;50.726;7.080;2023-04-24T03:30:57;9.00;99.90
27900;DHT22;15243;50.726;7.080;2023-04-24T03:33:24;9.00;99.90
27900;DHT22;15243;50.726;7.080;2023-04-24T03:35:51;9.00;99.90
27900;DHT22;15243;50.726;7.080;2023-04-24T03:38:19;8.90;99.90
27900;DHT22;15243;50.726;7.080;2023-04-24T03:40:46;8.90;99.90
27900;DHT22;15243;50.726;7.080;2023-04-24T03:43:13;8.80;99.90
27900;DHT22;15243;50.726;7.080;2023-04-24T03:45:41;8.90;99.90
27900;DHT22;15243;50.726;7.080;2023-04-24T03:48:08;8.80;99.90
27900;DHT22;15243;50.726;7.080;2023-04-24T03:50:34;8.80;99.90
27900;DHT22;15243;50.726;7.080;2023-04-24T03:53:02;8.70;99.90
27900;DHT22;15243;50.726;7.080;2023-04-24T03:55:29;8.70;99.90
27900;DHT22;15243;50.726;7.080;2023-04-24T03:57:56;8.60;99.90
27900;DHT22;15243;50.726;7.080;2023-04-24T04:00:23;8.60;99.90
27900;DHT22;15243;50.726;7.080;2023-04-24T04:02:50;8.50;99.90
27900;DHT22;15243;50.726;7.080;2023-04-24T04:05:17;8.50;99.90
27900;DHT22;15243;50.726;7.080;2023-04-24T04:07:44;8.50;99.90
27900;DHT22;15243;50.726;7.080;2023-04-24T04:10:11;8.40;99.90
27900;DHT22;15243;50.726;7.080;2023-04-24T04:12:38;8.40;99.90
27900;DHT22;15243;50.726;7.080;2023-04-24T04:15:07;8.40;99.90
27900;DHT22;15243;50.726;7.080;2023-04-24T04:17:34;8.40;99.90
27900;DHT22;15243;50.726;7.080;2023-04-24T04:20:01;8.40;99.90
27900;DHT22;15243;50.726;7.080;2023-04-24T04:22:29;8.30;99.90
27900;DHT22;15243;50.726;7.080;2023-04-24T04:24:55;8.40;99.90
27900;DHT22;15243;50.726;7.080;2023-04-24T04:27:23;8.40;99.90
27900;DHT22;15243;50.726;7.080;2023-04-24T04:29:50;8.40;99.90
27900;DHT22;15243;50.726;7.080;2023-04-24T04:32:18;8.50;99.90
27900;DHT22;15243;50.726;7.080;2023-04-24T04:34:45;8.40;99.90
27900;DHT22;15243;50.726;7.080;2023-04-24T04:37:12;8.40;99.90
27900;DHT22;15243;50.726;7.080;2023-04-24T04:39:39;8.40;99.90
27900;DHT22;15243;50.726;7.080;2023-04-24T04:42:06;8.50;99.90
27900;DHT22;15243;50.726;7.080;2023-04-24T04:44:33;8.50;99.90
27900;DHT22;15243;50.726;7.080;2023-04-24T04:47:02;8.50;99.90
27900;DHT22;15243;50.726;7.080;2023-04-24T04:49:32;8.60;99.90
27900;DHT22;15243;50.726;7.080;2023-04-24T04:51:59;8.60;99.90
27900;DHT22;15243;50.726;7.080;2023-04-24T04:54:26;8.60;99.90
27900;DHT22;15243;50.726;7.080;2023-04-24T04:56:53;8.50;99.90
27900;DHT22;15243;50.726;7.080;2023-04-24T04:59:20;8.50;99.90
27900;DHT22;15243;50.726;7.080;2023-04-24T05:01:47;8.50;99.90
27900;DHT22;15243;50.726;7.080;2023-04-24T05:04:14;8.50;99.90
27900;DHT22;15243;50.726;7.080;2023-04-24T05:06:41;8.50;99.90
27900;DHT22;15243;50.726;7.080;2023-04-24T05:09:08;8.50;99.90
27900;DHT22;15243;50.726;7.080;2023-04-24T05:11:37;8.50;99.90
27900;DHT22;15243;50.726;7.080;2023-04-24T05:14:04;8.50;99.90
27900;DHT22;15243;50.726;7.080;2023-04-24T05:16:31;8.50;99.90
27900;DHT22;15243;50.726;7.080;2023-04-24T05:18:58;8.50;99.90
27900;DHT22;15243;50.726;7.080;2023-04-24T05:21:25;8.50;99.90
27900;DHT22;15243;50.726;7.080;2023-04-24T05:23:53;8.60;99.90
27900;DHT22;15243;50.726;7.080;2023-04-24T05:26:22;8.70;99.90
27900;DHT22;15243;50.726;7.080;2023-04-24T05:28:50;8.60;99.90
27900;DHT22;15243;50.726;7.080;2023-04-24T05:31:19;8.70;99.90
27900;DHT22;15243;50.726;7.080;2023-04-24T05:33:46;8.80;99.90
27900;DHT22;15243;50.726;7.080;2023-04-24T05:36:14;8.80;99.90
27900;DHT22;15243;50.726;7.080;2023-04-24T05:38:41;8.80;99.90
27900;DHT22;15243;50.726;7.080;2023-04-24T05:41:08;8.80;99.90
27900;DHT22;15243;50.726;7.080;2023-04-24T05:43:35;8.90;99.90
27900;DHT22;15243;50.726;7.080;2023-04-24T05:46:02;8.90;99.90
27900;DHT22;15243;50.726;7.080;2023-04-24T05:48:29;9.00;99.90
27900;DHT22;15243;50.726;7.080;2023-04-24T05:50:57;9.00;99.90
27900;DHT22;15243;50.726;7.080;2023-04-24T05:53:24;9.00;99.90
27900;DHT22;15243;50.726;7.080;2023-04-24T05:55:55;9.10;99.90
27900;DHT22;15243;50.726;7.080;2023-04-24T05:58:22;9.10;99.90
27900;DHT22;15243;50.726;7.080;2023-04-24T06:00:49;9.10;99.90
27900;DHT22;15243;50.726;7.080;2023-04-24T06:03:16;9.20;99.90
27900;DHT22;15243;50.726;7.080;2023-04-24T06:05:44;9.30;99.90
27900;DHT22;15243;50.726;7.080;2023-04-24T06:08:11;9.30;99.90
27900;DHT22;15243;50.726;7.080;2023-04-24T06:10:38;9.40;99.90
27900;DHT22;15243;50.726;7.080;2023-04-24T06:13:05;9.50;99.90
27900;DHT22;15243;50.726;7.080;2023-04-24T06:15:32;9.50;99.90
27900;DHT22;15243;50.726;7.080;2023-04-24T06:17:59;9.40;99.90
27900;DHT22;15243;50.726;7.080;2023-04-24T06:20:26;9.40;99.90
27900;DHT22;15243;50.726;7.080;2023-04-24T06:22:53;9.50;99.90
27900;DHT22;15243;50.726;7.080;2023-04-24T06:25:20;9.40;99.90
27900;DHT22;15243;50.726;7.080;2023-04-24T06:27:47;9.60;99.90
27900;DHT22;15243;50.726;7.080;2023-04-24T06:30:14;9.70;99.90
27900;DHT22;15243;50.726;7.080;2023-04-24T06:32:42;9.70;99.90
27900;DHT22;15243;50.726;7.080;2023-04-24T06:35:09;10.00;99.90
27900;DHT22;15243;50.726;7.080;2023-04-24T06:37:36;10.00;99.90
27900;DHT22;15243;50.726;7.080;2023-04-24T06:40:04;9.80;99.90
27900;DHT22;15243;50.726;7.080;2023-04-24T06:42:34;9.90;99.90
27900;DHT22;15243;50.726;7.080;2023-04-24T06:45:02;9.90;99.90
27900;DHT22;15243;50.726;7.080;2023-04-24T06:47:30;9.90;99.90
27900;DHT22;15243;50.726;7.080;2023-04-24T06:49:58;9.80;99.90
27900;DHT22;15243;50.726;7.080;2023-04-24T06:52:24;9.70;99.90
27900;DHT22;15243;50.726;7.080;2023-04-24T06:54:52;9.70;99.90
27900;DHT22;15243;50.726;7.080;2023-04-24T06:57:19;9.60;99.90
27900;DHT22;15243;50.726;7.080;2023-04-24T06:59:49;9.70;99.90
27900;DHT22;15243;50.726;7.080;2023-04-24T07:02:17;9.60;99.90
27900;DHT22;15243;50.726;7.080;2023-04-24T07:04:44;9.60;99.90
27900;DHT22;15243;50.726;7.080;2023-04-24T07:07:12;9.50;99.90
27900;DHT22;15243;50.726;7.080;2023-04-24T07:09:40;9.40;99.90
27900;DHT22;15243;50.726;7.080;2023-04-24T07:12:10;9.50;99.90
27900;DHT22;15243;50.726;7.080;2023-04-24T07:14:40;9.40;99.90
27900;DHT22;15243;50.726;7.080;2023-04-24T07:17:07;9.40;99.90
27900;DHT22;15243;50.726;7.080;2023-04-24T07:19:34;9.40;99.90
27900;DHT22;15243;50.726;7.080;2023-04-24T07:22:03;9.50;99.90
27900;DHT22;15243;50.726;7.080;2023-04-24T07:24:30;9.40;99.90
27900;DHT22;15243;50.726;7.080;2023-04-24T07:26:59;9.40;99.90
27900;DHT22;15243;50.726;7.080;2023-04-24T07:29:28;9.40;99.90
27900;DHT22;15243;50.726;7.080;2023-04-24T07:31:55;9.40;99.90
27900;DHT22;15243;50.726;7.080;2023-04-24T07:34:23;9.50;99.90
27900;DHT22;15243;50.726;7.080;2023-04-24T07:36:50;9.50;99.90
27900;DHT22;15243;50.726;7.080;2023-04-24T07:39:18;9.50;99.90
27900;DHT22;15243;50.726;7.080;2023-04-24T07:41:45;9.40;99.90
27900;DHT22;15243;50.726;7.080;2023-04-24T07:44:13;9.30;99.90
27900;DHT22;15243;50.726;7.080;2023-04-24T07:46:40;9.30;99.90
27900;DHT22;15243;50.726;7.080;2023-04-24T07:49:07;9.30;99.90
27900;DHT22;15243;50.726;7.080;2023-04-24T07:51:40;9.40;99.90
27900;DHT22;15243;50.726;7.080;2023-04-24T07:54:08;9.30;99.90
27900;DHT22;15243;50.726;7.080;2023-04-24T07:56:35;9.40;99.90
27900;DHT22;15243;50.726;7.080;2023-04-24T07:59:06;9.40;99.90
27900;DHT22;15243;50.726;7.080;2023-04-24T08:01:33;9.50;99.90
27900;DHT22;15243;50.726;7.080;2023-04-24T08:04:00;9.30;99.90
27900;DHT22;15243;50.726;7.080;2023-04-24T08:06:28;9.00;99.90
27900;DHT22;15243;50.726;7.080;2023-04-24T08:08:57;9.10;99.90
27900;DHT22;15243;50.726;7.080;2023-04-24T08:11:25;9.00;99.90
27900;DHT22;15243;50.726;7.080;2023-04-24T08:13:52;9.00;99.90
27900;DHT22;15243;50.726;7.080;2023-04-24T08:16:19;8.90;99.90
27900;DHT22;15243;50.726;7.080;2023-04-24T08:18:46;8.90;99.90
27900;DHT22;15243;50.726;7.080;2023-04-24T08:21:13;8.80;99.90
27900;DHT22;15243;50.726;7.080;2023-04-24T08:23:44;8.80;99.90
27900;DHT22;15243;50.726;7.080;2023-04-24T08:26:11;8.70;99.90
27900;DHT22;15243;50.726;7.080;2023-04-24T08:28:40;8.60;99.90
27900;DHT22;15243;50.726;7.080;2023-04-24T08:31:07;8.60;99.90
27900;DHT22;15243;50.726;7.080;2023-04-24T08:33:34;8.60;99.90
27900;DHT22;15243;50.726;7.080;2023-04-24T08:36:05;8.40;99.90
27900;DHT22;15243;50.726;7.080;2023-04-24T08:38:33;8.50;99.90
27900;DHT22;15243;50.726;7.080;2023-04-24T08:41:01;8.40;99.90
27900;DHT22;15243;50.726;7.080;2023-04-24T08:43:28;8.40;99.90
27900;DHT22;15243;50.726;7.080;2023-04-24T08:45:56;8.20;99.90
27900;DHT22;15243;50.726;7.080;2023-04-24T08:48:24;7.90;99.90
27900;DHT22;15243;50.726;7.080;2023-04-24T08:50:58;7.80;99.90
27900;DHT22;15243;50.726;7.080;2023-04-24T08:53:26;7.70;99.90
27900;DHT22;15243;50.726;7.080;2023-04-24T08:55:55;7.60;99.90
27900;DHT22;15243;50.726;7.080;2023-04-24T08:58:25;7.60;99.90
27900;DHT22;15243;50.726;7.080;2023-04-24T09:00:57;7.40;99.90
27900;DHT22;15243;50.726;7.080;2023-04-24T09:03:24;7.50;99.90
27900;DHT22;15243;50.726;7.080;2023-04-24T09:05:55;7.50;99.90
27900;DHT22;15243;50.726;7.080;2023-04-24T09:08:24;7.60;99.90
27900;DHT22;15243;50.726;7.080;2023-04-24T09:10:52;7.50;99.90
27900;DHT22;15243;50.726;7.080;2023-04-24T09:13:20;7.60;99.90
27900;DHT22;15243;50.726;7.080;2023-04-24T09:15:47;7.60;99.90
27900;DHT22;15243;50.726;7.080;2023-04-24T09:18:14;7.60;99.90
27900;DHT22;15243;50.726;7.080;2023-04-24T09:21:04;7.60;99.90
27900;DHT22;15243;50.726;7.080;2023-04-24T09:23:33;7.60;99.90
27900;DHT22;15243;50.726;7.080;2023-04-24T09:26:02;7.60;99.90
27900;DHT22;15243;50.726;7.080;2023-04-24T09:28:39;7.70;99.90
27900;DHT22;15243;50.726;7.080;2023-04-24T09:31:11;7.70;99.90
27900;DHT22;15243;50.726;7.080;2023-04-24T09:33:38;7.80;99.90
27900;DHT22;15243;50.726;7.080;2023-04-24T09:36:05;7.90;99.90
27900;DHT22;15243;50.726;7.080;2023-04-24T09:38:34;7.90;99.90
27900;DHT22;15243;50.726;7.080;2023-04-24T09:41:08;7.90;99.90
27900;DHT22;15243;50.726;7.080;2023-04-24T09:43:39;7.80;99.90
27900;DHT22;15243;50.726;7.080;2023-04-24T09:46:07;7.80;99.90
27900;DHT22;15243;50.726;7.080;2023-04-24T09:48:37;7.80;99.90
27900;DHT22;15243;50.726;7.080;2023-04-24T09:51:05;7.80;99.90
27900;DHT22;15243;50.726;7.080;2023-04-24T09:53:38;7.80;99.90
27900;DHT22;15243;50.726;7.080;2023-04-24T09:56:09;7.90;99.90
27900;DHT22;15243;50.726;7.080;2023-04-24T09:58:39;7.90;99.90
27900;DHT22;15243;50.726;7.080;2023-04-24T10:01:06;8.00;99.90
27900;DHT22;15243;50.726;7.080;2023-04-24T10:03:34;8.10;99.90
27900;DHT22;15243;50.726;7.080;2023-04-24T10:06:02;8.10;99.90
27900;DHT22;15243;50.726;7.080;2023-04-24T10:08:36;8.30;99.90
27900;DHT22;15243;50.726;7.080;2023-04-24T10:11:04;8.20;99.90
27900;DHT22;15243;50.726;7.080;2023-04-24T10:13:32;8.10;99.90
27900;DHT22;15243;50.726;7.080;2023-04-24T10:16:01;8.10;99.90
27900;DHT22;15243;50.726;7.080;2023-04-24T10:18:30;8.20;99.90
27900;DHT22;15243;50.726;7.080;2023-04-24T10:20:59;8.20;99.90
27900;DHT22;15243;50.726;7.080;2023-04-24T10:23:27;8.20;99.90
27900;DHT22;15243;50.726;7.080;2023-04-24T10:25:54;8.30;99.90
27900;DHT22;15243;50.726;7.080;2023-04-24T10:28:22;8.20;99.90
27900;DHT22;15243;50.726;7.080;2023-04-24T10:30:52;8.40;99.90
27900;DHT22;15243;50.726;7.080;2023-04-24T10:33:22;8.50;99.90
27900;DHT22;15243;50.726;7.080;2023-04-24T10:35:50;8.50;99.90
27900;DHT22;15243;50.726;7.080;2023-04-24T10:38:22;8.40;99.90
27900;DHT22;15243;50.726;7.080;2023-04-24T10:40:51;8.50;99.90
27900;DHT22;15243;50.726;7.080;2023-04-24T10:43:18;8.70;99.90
27900;DHT22;15243;50.726;7.080;2023-04-24T10:46:03;8.70;99.90
27900;DHT22;15243;50.726;7.080;2023-04-24T10:48:31;8.60;99.90
27900;DHT22;15243;50.726;7.080;2023-04-24T10:50:59;8.60;99.90
27900;DHT22;15243;50.726;7.080;2023-04-24T10:53:30;8.50;99.90
27900;DHT22;15243;50.726;7.080;2023-04-24T10:58:36;8.90;99.90
27900;DHT22;15243;50.726;7.080;2023-04-24T11:01:04;8.90;99.90
27900;DHT22;15243;50.726;7.080;2023-04-24T11:03:33;8.80;99.90
27900;DHT22;15243;50.726;7.080;2023-04-24T11:06:05;8.70;99.90
27900;DHT22;15243;50.726;7.080;2023-04-24T11:08:43;8.80;99.90
27900;DHT22;15243;50.726;7.080;2023-04-24T11:11:16;9.00;99.90
27900;DHT22;15243;50.726;7.080;2023-04-24T11:18:52;9.70;99.90
27900;DHT22;15243;50.726;7.080;2023-04-24T11:21:22;9.80;99.90
27900;DHT22;15243;50.726;7.080;2023-04-24T11:23:49;10.00;99.90
27900;DHT22;15243;50.726;7.080;2023-04-24T11:26:18;9.80;99.90
27900;DHT22;15243;50.726;7.080;2023-04-24T11:28:48;10.00;99.90
27900;DHT22;15243;50.726;7.080;2023-04-24T11:31:39;10.00;99.90
27900;DHT22;15243;50.726;7.080;2023-04-24T11:34:14;9.80;99.90
27900;DHT22;15243;50.726;7.080;2023-04-24T11:36:45;10.00;99.90
27900;DHT22;15243;50.726;7.080;2023-04-24T11:39:13;10.40;99.90
27900;DHT22;15243;50.726;7.080;2023-04-24T11:41:40;10.70;99.90
27900;DHT22;15243;50.726;7.080;2023-04-24T11:44:09;10.60;99.90
27900;DHT22;15243;50.726;7.080;2023-04-24T11:46:37;10.80;99.90
27900;DHT22;15243;50.726;7.080;2023-04-24T11:49:07;10.70;99.90
27900;DHT22;15243;50.726;7.080;2023-04-24T11:51:34;10.60;99.90
27900;DHT22;15243;50.726;7.080;2023-04-24T11:54:16;10.50;99.90
27900;DHT22;15243;50.726;7.080;2023-04-24T11:56:47;10.40;99.90
27900;DHT22;15243;50.726;7.080;2023-04-24T11:59:14;10.40;99.90
27900;DHT22;15243;50.726;7.080;2023-04-24T12:01:45;10.50;99.90
27900;DHT22;15243;50.726;7.080;2023-04-24T12:04:13;10.40;99.90
27900;DHT22;15243;50.726;7.080;2023-04-24T12:07:02;10.50;99.90
27900;DHT22;15243;50.726;7.080;2023-04-24T12:09:36;10.90;99.90
27900;DHT22;15243;50.726;7.080;2023-04-24T12:12:06;10.90;99.90
27900;DHT22;15243;50.726;7.080;2023-04-24T12:14:48;11.00;99.90
27900;DHT22;15243;50.726;7.080;2023-04-24T12:17:27;10.90;99.90
27900;DHT22;15243;50.726;7.080;2023-04-24T12:20:04;11.10;99.90
27900;DHT22;15243;50.726;7.080;2023-04-24T12:22:49;11.20;99.90
27900;DHT22;15243;50.726;7.080;2023-04-24T12:25:19;11.20;99.90
27900;DHT22;15243;50.726;7.080;2023-04-24T12:27:51;11.30;99.90
27900;DHT22;15243;50.726;7.080;2023-04-24T12:30:19;11.40;99.90
27900;DHT22;15243;50.726;7.080;2023-04-24T12:32:47;11.90;99.90
27900;DHT22;15243;50.726;7.080;2023-04-24T12:35:24;12.20;99.90
27900;DHT22;15243;50.726;7.080;2023-04-24T12:37:51;12.40;99.90
27900;DHT22;15243;50.726;7.080;2023-04-24T12:40:20;11.80;99.90
27900;DHT22;15243;50.726;7.080;2023-04-24T12:42:49;11.40;99.90
27900;DHT22;15243;50.726;7.080;2023-04-24T12:45:18;11.50;99.90
27900;DHT22;15243;50.726;7.080;2023-04-24T12:47:46;11.80;99.90
27900;DHT22;15243;50.726;7.080;2023-04-24T12:50:15;12.00;99.90
27900;DHT22;15243;50.726;7.080;2023-04-24T12:52:43;12.50;99.90
27900;DHT22;15243;50.726;7.080;2023-04-24T12:55:10;12.80;70.20
27900;DHT22;15243;50.726;7.080;2023-04-24T12:57:39;12.70;51.70
27900;DHT22;15243;50.726;7.080;2023-04-24T13:00:08;12.60;42.30
27900;DHT22;15243;50.726;7.080;2023-04-24T13:02:35;12.30;78.90
27900;DHT22;15243;50.726;7.080;2023-04-24T13:05:03;12.20;34.50
27900;DHT22;15243;50.726;7.080;2023-04-24T13:07:30;11.90;11.80
27900;DHT22;15243;50.726;7.080;2023-04-24T13:09:57;11.80;19.40
27900;DHT22;15243;50.726;7.080;2023-04-24T13:12:24;11.60;26.70
27900;DHT22;15243;50.726;7.080;2023-04-24T13:14:53;11.50;12.90
27900;DHT22;15243;50.726;7.080;2023-04-24T13:17:22;11.60;7.10
27900;DHT22;15243;50.726;7.080;2023-04-24T13:19:51;11.60;1.00
27900;DHT22;15243;50.726;7.080;2023-04-24T13:22:25;11.50;1.00
27900;DHT22;15243;50.726;7.080;2023-04-24T13:24:55;11.80;1.00
27900;DHT22;15243;50.726;7.080;2023-04-24T13:27:23;11.80;1.00
27900;DHT22;15243;50.726;7.080;2023-04-24T13:29:50;12.60;1.00
27900;DHT22;15243;50.726;7.080;2023-04-24T13:32:17;13.10;1.00
27900;DHT22;15243;50.726;7.080;2023-04-24T13:34:44;13.80;1.00
27900;DHT22;15243;50.726;7.080;2023-04-24T13:37:12;13.40;1.00
27900;DHT22;15243;50.726;7.080;2023-04-24T13:39:39;13.30;1.00
27900;DHT22;15243;50.726;7.080;2023-04-24T13:42:08;13.00;1.00
27900;DHT22;15243;50.726;7.080;2023-04-24T13:44:35;14.00;1.00
27900;DHT22;15243;50.726;7.080;2023-04-24T13:47:02;14.40;1.00
27900;DHT22;15243;50.726;7.080;2023-04-24T13:49:29;14.90;1.00
27900;DHT22;15243;50.726;7.080;2023-04-24T13:51:56;15.40;1.00
27900;DHT22;15243;50.726;7.080;2023-04-24T13:54:23;15.50;1.00
27900;DHT22;15243;50.726;7.080;2023-04-24T13:56:53;16.30;1.00
27900;DHT22;15243;50.726;7.080;2023-04-24T13:59:20;15.80;1.00
27900;DHT22;15243;50.726;7.080;2023-04-24T14:01:50;15.20;1.00
27900;DHT22;15243;50.726;7.080;2023-04-24T14:04:17;14.40;1.00
27900;DHT22;15243;50.726;7.080;2023-04-24T14:06:44;13.90;1.00
27900;DHT22;15243;50.726;7.080;2023-04-24T14:09:11;13.70;1.00
27900;DHT22;15243;50.726;7.080;2023-04-24T14:11:40;13.40;1.00
27900;DHT22;15243;50.726;7.080;2023-04-24T14:14:07;12.70;16.10
27900;DHT22;15243;50.726;7.080;2023-04-24T14:16:34;12.50;43.10
27900;DHT22;15243;50.726;7.080;2023-04-24T14:19:01;12.70;80.40
27900;DHT22;15243;50.726;7.080;2023-04-24T14:21:28;13.90;83.40
27900;DHT22;15243;50.726;7.080;2023-04-24T14:23:55;14.30;1.00
27900;DHT22;15243;50.726;7.080;2023-04-24T14:26:22;14.30;29.40
27900;DHT22;15243;50.726;7.080;2023-04-24T14:28:49;13.70;1.00
27900;DHT22;15243;50.726;7.080;2023-04-24T14:31:19;13.70;17.10
27900;DHT22;15243;50.726;7.080;2023-04-24T14:33:46;14.00;44.90
27900;DHT22;15243;50.726;7.080;2023-04-24T14:36:13;13.90;1.00
27900;DHT22;15243;50.726;7.080;2023-04-24T14:38:41;13.20;1.00
27900;DHT22;15243;50.726;7.080;2023-04-24T14:41:09;13.30;1.00
27900;DHT22;15243;50.726;7.080;2023-04-24T14:43:39;13.90;1.00
27900;DHT22;15243;50.726;7.080;2023-04-24T14:46:07;15.10;1.00
27900;DHT22;15243;50.726;7.080;2023-04-24T14:48:34;15.90;1.00
27900;DHT22;15243;50.726;7.080;2023-04-24T14:51:01;16.00;1.00
27900;DHT22;15243;50.726;7.080;2023-04-24T14:53:28;16.10;1.00
27900;DHT22;15243;50.726;7.080;2023-04-24T14:55:55;16.20;99.90
27900;DHT22;15243;50.726;7.080;2023-04-24T14:58:22;15.70;1.00
27900;DHT22;15243;50.726;7.080;2023-04-24T15:00:52;15.00;1.00
27900;DHT22;15243;50.726;7.080;2023-04-24T15:03:21;14.80;1.00
27900;DHT22;15243;50.726;7.080;2023-04-24T15:05:49;14.20;1.00
27900;DHT22;15243;50.726;7.080;2023-04-24T15:08:16;15.00;1.00
27900;DHT22;15243;50.726;7.080;2023-04-24T15:10:43;16.10;1.00
27900;DHT22;15243;50.726;7.080;2023-04-24T15:13:11;16.50;99.90
27900;DHT22;15243;50.726;7.080;2023-04-24T15:15:39;16.90;99.90
27900;DHT22;15243;50.726;7.080;2023-04-24T15:18:08;18.60;99.90
27900;DHT22;15243;50.726;7.080;2023-04-24T15:20:38;17.80;99.90
27900;DHT22;15243;50.726;7.080;2023-04-24T15:23:08;17.30;99.90
27900;DHT22;15243;50.726;7.080;2023-04-24T15:25:35;17.60;99.90
27900;DHT22;15243;50.726;7.080;2023-04-24T15:28:03;17.60;99.90
27900;DHT22;15243;50.726;7.080;2023-04-24T15:30:31;16.50;99.90
27900;DHT22;15243;50.726;7.080;2023-04-24T15:32:59;16.00;99.90
27900;DHT22;15243;50.726;7.080;2023-04-24T15:35:27;15.20;99.90
27900;DHT22;15243;50.726;7.080;2023-04-24T15:37:55;14.70;99.90
27900;DHT22;15243;50.726;7.080;2023-04-24T15:40:22;14.40;1.00
27900;DHT22;15243;50.726;7.080;2023-04-24T15:42:49;15.10;1.00
27900;DHT22;15243;50.726;7.080;2023-04-24T15:45:17;15.30;99.90
27900;DHT22;15243;50.726;7.080;2023-04-24T15:47:44;16.50;99.90
27900;DHT22;15243;50.726;7.080;2023-04-24T15:50:18;16.40;99.90
27900;DHT22;15243;50.726;7.080;2023-04-24T15:52:53;16.20;99.90
27900;DHT22;15243;50.726;7.080;2023-04-24T15:55:20;15.90;99.90